Pollock, ID

4:30 PM PDT on July 24, 2014 (GMT -0700)
Idaho Cnty AP, Grangeville, I (KGIC) Elev 3314 ft | 45.94 °N, 116.12 °W | Change Station

Current weather conditions updated 15 minutes ago

Clear
Clear
72 °F
Feels Like 72 °F
N
7
Wind Variable Wind from West

Tomorrow is forecast to be Much Warmer than today.

Today
High -- | Low -- °F
--% Chance of Precip.
Yesterday
High -- | Low -- °F
Precip. -- in
5:21 AM 8:22 PM
Waning Crescent, 4% visible
Pressure 30.16 in
Visibility 10.0 miles
Clouds Clear
Dew Point 32 °F
Humidity 22%
Rainfall 0.00 in
Snow Depth 0 in , 0 in
UV 6 out of 12
Pollen 6.30 out of 12
PM2.5 Good
Flu Activity Not available.
METAR KGIC 242315Z AUTO 28006KT 10SM CLR 23/00 A3016 RMK AO1 T02251001

More Conditions Fewer Conditions

Pressure 30.16 in
Visibility 10.0 miles
Clouds Clear
Dew Point 32 °F
Humidity 22%
Rainfall 0.00 in
Snow Depth 0 in , 0 in
UV 6 out of 12
Pollen 6.30 out of 12
PM2.5 Good
Flu Activity Not available.
METAR KGIC 242315Z AUTO 28006KT 10SM CLR 23/00 A3016 RMK AO1 T02251001

More Conditions Fewer Conditions

10-Day Weather Forecast

Almanac

Astronomy

Jul. 24, 2014 Rise Set
Actual Time 5:21 AM PDT 8:22 PM PDT
Civil Twilight 4:46 AM PDT 8:56 PM PDT
Nautical Twilight 4:01 AM PDT 9:41 PM PDT
Astronomical Twilight 3:07 AM PDT 10:35 PM PDT
Moon 3:33 AM PDT 6:38 PM PDT
Length of Visible Light 16h 10m
Length of Day
15h 00m
Tomorrow will be 2m 9s shorter.
Waning Crescent, 4% of the Moon is Illuminated
Today
Waning Crescent
Jul 26
New
Aug 3
First Quarter
Aug 10
Full
Aug 17
Last Quarter

Today's Extremes

State Highs State Lows

Community

WunderPhotos

Upload Photos

1,737,162 photos uploaded!

Nearby

Air Quality

  Air Quality AQ Index Pollutant
Yesterday Good
PM2.5
Current Good
PM2.5
Thursday Good
PM2.5
Friday Good
PM2.5
Saturday Good
PM2.5

Snow Depth

Station Depth Elevation
West Branch 0 in 5560 ft
Brundage Reservoir 0 in 6300 ft
Bear Basin 0 in 5350 ft
Big Creek Summit 1 in 6580 ft
Deadwood Summit 0 in 6860 ft

Earthquake Activity

City Distance Mag. Time & Date
No recent earthquake activity has been reported nearby.
Minimum magnitude displayed is 2.5.

Coastal Water Temperatures

Place Temperature
No Stations Reporting

Nearby Weather Stations

Station Location Temp. Heat Index Dew Point Humidity Wind Precip. Elev Updated Type
ITD Smokey Boulder ID , New Meadows, ID 74 °F 76 °F 34 °F 23% SE  at  9 mph 0.00 in / hr 3829 ft 4:45 PM MDT MADIS
RAWS SNAKE RIVER ID, Oxbow, OR 71 °F 75 °F 29 °F 21% West  at  11 mph 0.00 in / hr 4375 ft 3:46 PM PDT MADIS
RAWS SKI HILL ID, New Meadows, ID 68 °F - 25 °F 20% WNW  at  4 mph 0.00 in / hr 5296 ft 4:58 PM MDT MADIS

Show More Stations Show Fewer Stations